Terminal Aerodrome Forecast
Issued by NWS

Home | Current Version | Previous Version | Text Only | Print | Product List | Glossary On
Versions: 1 2 3 4 5 6 7 8 9 10 11 12 13 14
000
FTUS42 KTAE 232327
TAFVLD
TAF
KVLD 232327Z 2400/2424 06005KT P6SM SCT040 BKN250
     FM241100 06003KT 4SM BR SCT004 BKN010
     FM241300 07008KT P6SM SCT040=

USA.gov is the U.S. government's official web portal to all federal, state and local government web resources and services.